Kasif Kalkavan — V7IX7 — position and weather

sailwx.info

Track history (hours):
 
Tides and Currents Weather Stations Pressure Air Temp Water Temp Dewpoint Dewpoint Depression Visibility Wind Speed Wind Dir Waves Ship Positions

Kasif Kalkavan

Last reported at 2015-Aug-01 07:33 UTC. Time now 2015-Aug-01 07:53 UTC.
Position N 35°51' E 014°39'.

Type: Cargo ship. MMSI: 538090190.

Date/timePositionNaut miles runAvg speedWind from/ knotsBaromVisibWave heightAir tempDewpointWater temp
2015-Aug-01 07:33N 35°51' E 014°39'0 0.0
2015-Aug-01 06:33N 35°51' E 014°39'0 0.0
2015-Aug-01 05:33N 35°51' E 014°39'0 0.0
2015-Aug-01 04:30N 35°51' E 014°39'0 0.0
2015-Aug-01 03:33N 35°51' E 014°39'0 0.0
2015-Aug-01 02:33N 35°51' E 014°39'0 0.1
2015-Aug-01 01:31N 35°51' E 014°39'0 0.0
2015-Aug-01 00:32N 35°51' E 014°39'0 0.0
2015-Jul-31 23:33N 35°51' E 014°39'0 0.1
2015-Jul-31 22:33N 35°51' E 014°39'0 0.1
2015-Jul-31 21:29N 35°52' E 014°39'0 0.0
2015-Jul-31 20:29N 35°51' E 014°39'0 0.0
2015-Jul-31 19:30N 35°51' E 014°39'1 1.1
2015-Jul-31 18:33N 35°51' E 014°38'2 0.1
2015-Jul-30 15:20N 35°50' E 014°40'0 0.0
2015-Jul-30 11:27N 35°50' E 014°40'0 0.0
2015-Jul-30 10:25N 35°50' E 014°40'0 0.0
2015-Jul-30 09:29N 35°50' E 014°40'0 0.0
2015-Jul-30 08:32N 35°50' E 014°40'0 0.0
2015-Jul-30 07:22N 35°50' E 014°40'0 0.0
2015-Jul-30 06:26N 35°50' E 014°40'0 0.0
2015-Jul-30 05:33N 35°50' E 014°40'0 0.0
2015-Jul-30 04:28N 35°50' E 014°40'0 0.0
2015-Jul-30 03:21N 35°50' E 014°40'0 0.0
2015-Jul-29 21:15N 35°50' E 014°40'0 0.0
2015-Jul-29 20:22N 35°50' E 014°40'0 0.0
2015-Jul-29 19:31N 35°50' E 014°40'0 0.0
2015-Jul-29 18:32N 35°50' E 014°40'0 0.0
2015-Jul-29 17:33N 35°50' E 014°40'0 0.0
2015-Jul-29 16:33N 35°50' E 014°40'0 0.0
2015-Jul-29 15:33N 35°50' E 014°40'0 0.0
2015-Jul-29 14:33N 35°50' E 014°40'0 0.0
2015-Jul-29 13:33N 35°50' E 014°40'0 0.0
2015-Jul-29 12:33N 35°50' E 014°40'0 0.0
2015-Jul-29 11:33N 35°50' E 014°40'0 0.0
2015-Jul-29 10:32N 35°50' E 014°40'1 0.8
2015-Jul-29 09:26N 35°50' E 014°41'6516.3
2015-Jul-29 05:26N 35°53' E 016°02'37615.4
2015-Jul-28 05:04N 37°03' E 023°41'  
2015-Jul-24 06:16N 45°25' E 030°33'1317.0
2015-Jul-24 05:32N 45°36' E 030°41'1716.9
2015-Jul-24 04:34N 45°50' E 030°54'1616.5
2015-Jul-24 03:33N 46°05' E 031°04'1615.8
2015-Jul-24 02:34N 46°18' E 030°53'13 4.3
2015-Jul-23 23:28N 46°30' E 030°44'0 0.0
2015-Jul-23 22:22N 46°30' E 030°44'0 0.0
2015-Jul-23 20:28N 46°30' E 030°44'0 0.0
2015-Jul-23 19:28N 46°30' E 030°44'0 0.0
2015-Jul-23 18:28N 46°30' E 030°44'0 0.0
2015-Jul-23 17:31N 46°30' E 030°44'0 0.0
2015-Jul-23 16:29N 46°30' E 030°44'4 3.9
2015-Jul-23 15:33N 46°30' E 030°49'3 0.3
2015-Jul-23 03:19N 46°28' E 030°52'0 0.0
2015-Jul-23 02:31N 46°28' E 030°52'0 0.0
2015-Jul-23 01:28N 46°28' E 030°52'0 0.0
2015-Jul-23 00:28N 46°28' E 030°52'0 0.0
2015-Jul-22 23:25N 46°28' E 030°52'0 0.0
2015-Jul-22 22:31N 46°28' E 030°52'1 0.6
2015-Jul-22 21:33N 46°28' E 030°53'1914.8
2015-Jul-22 20:18N 46°11' E 031°05'1215.5
2015-Jul-22 19:33N 46°00' E 031°01'1717.5
2015-Jul-22 18:33N 45°45' E 030°49'  
Track history (hours):
 
Tides and Currents Weather Stations Pressure Air Temp Water Temp Dewpoint Dewpoint Depression Visibility Wind Speed Wind Dir Waves Ship Positions

Kasif Kalkavan

Last reported at 2015-Aug-01 07:33 UTC. Time now 2015-Aug-01 07:53 UTC.
Position N 35°51' E 014°39'.

Type: Cargo ship. MMSI: 538090190.

Date/timePositionNaut miles runAvg speedWind from/ knotsBaromVisibWave heightAir tempDewpointWater temp
2015-Aug-01 07:33N 35°51' E 014°39'0 0.0
2015-Aug-01 06:33N 35°51' E 014°39'0 0.0
2015-Aug-01 05:33N 35°51' E 014°39'0 0.0
2015-Aug-01 04:30N 35°51' E 014°39'0 0.0
2015-Aug-01 03:33N 35°51' E 014°39'0 0.0
2015-Aug-01 02:33N 35°51' E 014°39'0 0.1
2015-Aug-01 01:31N 35°51' E 014°39'0 0.0
2015-Aug-01 00:32N 35°51' E 014°39'0 0.0
2015-Jul-31 23:33N 35°51' E 014°39'0 0.1
2015-Jul-31 22:33N 35°51' E 014°39'0 0.1
2015-Jul-31 21:29N 35°52' E 014°39'0 0.0
2015-Jul-31 20:29N 35°51' E 014°39'0 0.0
2015-Jul-31 19:30N 35°51' E 014°39'1 1.1
2015-Jul-31 18:33N 35°51' E 014°38'2 0.1
2015-Jul-30 15:20N 35°50' E 014°40'0 0.0
2015-Jul-30 11:27N 35°50' E 014°40'0 0.0
2015-Jul-30 10:25N 35°50' E 014°40'0 0.0
2015-Jul-30 09:29N 35°50' E 014°40'0 0.0
2015-Jul-30 08:32N 35°50' E 014°40'0 0.0
2015-Jul-30 07:22N 35°50' E 014°40'0 0.0
2015-Jul-30 06:26N 35°50' E 014°40'0 0.0
2015-Jul-30 05:33N 35°50' E 014°40'0 0.0
2015-Jul-30 04:28N 35°50' E 014°40'0 0.0
2015-Jul-30 03:21N 35°50' E 014°40'0 0.0
2015-Jul-29 21:15N 35°50' E 014°40'0 0.0
2015-Jul-29 20:22N 35°50' E 014°40'0 0.0
2015-Jul-29 19:31N 35°50' E 014°40'0 0.0
2015-Jul-29 18:32N 35°50' E 014°40'0 0.0
2015-Jul-29 17:33N 35°50' E 014°40'0 0.0
2015-Jul-29 16:33N 35°50' E 014°40'0 0.0
2015-Jul-29 15:33N 35°50' E 014°40'0 0.0
2015-Jul-29 14:33N 35°50' E 014°40'0 0.0
2015-Jul-29 13:33N 35°50' E 014°40'0 0.0
2015-Jul-29 12:33N 35°50' E 014°40'0 0.0
2015-Jul-29 11:33N 35°50' E 014°40'0 0.0
2015-Jul-29 10:32N 35°50' E 014°40'1 0.8
2015-Jul-29 09:26N 35°50' E 014°41'6516.3
2015-Jul-29 05:26N 35°53' E 016°02'37615.4
2015-Jul-28 05:04N 37°03' E 023°41'  
2015-Jul-24 06:16N 45°25' E 030°33'1317.0
2015-Jul-24 05:32N 45°36' E 030°41'1716.9
2015-Jul-24 04:34N 45°50' E 030°54'1616.5
2015-Jul-24 03:33N 46°05' E 031°04'1615.8
2015-Jul-24 02:34N 46°18' E 030°53'13 4.3
2015-Jul-23 23:28N 46°30' E 030°44'0 0.0
2015-Jul-23 22:22N 46°30' E 030°44'0 0.0
2015-Jul-23 20:28N 46°30' E 030°44'0 0.0
2015-Jul-23 19:28N 46°30' E 030°44'0 0.0
2015-Jul-23 18:28N 46°30' E 030°44'0 0.0
2015-Jul-23 17:31N 46°30' E 030°44'0 0.0
2015-Jul-23 16:29N 46°30' E 030°44'4 3.9
2015-Jul-23 15:33N 46°30' E 030°49'3 0.3
2015-Jul-23 03:19N 46°28' E 030°52'0 0.0
2015-Jul-23 02:31N 46°28' E 030°52'0 0.0
2015-Jul-23 01:28N 46°28' E 030°52'0 0.0
2015-Jul-23 00:28N 46°28' E 030°52'0 0.0
2015-Jul-22 23:25N 46°28' E 030°52'0 0.0
2015-Jul-22 22:31N 46°28' E 030°52'1 0.6
2015-Jul-22 21:33N 46°28' E 030°53'1914.8
2015-Jul-22 20:18N 46°11' E 031°05'1215.5
2015-Jul-22 19:33N 46°00' E 031°01'1717.5
2015-Jul-22 18:33N 45°45' E 030°49'  

Dump ship's entire track history